sensor_id;sensor_type;location;lat;lon;timestamp;temperature;humidity
69626;DHT22;56847;51.984;5.088;2024-01-27T00:01:44;6.60;83.70
69626;DHT22;56847;51.984;5.088;2024-01-27T00:04:11;6.50;83.60
69626;DHT22;56847;51.984;5.088;2024-01-27T00:06:38;6.50;83.60
69626;DHT22;56847;51.984;5.088;2024-01-27T00:09:05;6.50;83.60
69626;DHT22;56847;51.984;5.088;2024-01-27T00:11:33;6.50;83.60
69626;DHT22;56847;51.984;5.088;2024-01-27T00:14:03;6.50;83.70
69626;DHT22;56847;51.984;5.088;2024-01-27T00:16:30;6.50;83.50
69626;DHT22;56847;51.984;5.088;2024-01-27T00:18:57;6.50;83.40
69626;DHT22;56847;51.984;5.088;2024-01-27T00:21:24;6.50;83.40
69626;DHT22;56847;51.984;5.088;2024-01-27T00:23:51;6.50;83.30
69626;DHT22;56847;51.984;5.088;2024-01-27T00:26:21;6.50;83.30
69626;DHT22;56847;51.984;5.088;2024-01-27T00:28:48;6.50;83.30
69626;DHT22;56847;51.984;5.088;2024-01-27T00:31:15;6.50;83.40
69626;DHT22;56847;51.984;5.088;2024-01-27T00:33:42;6.50;83.50
69626;DHT22;56847;51.984;5.088;2024-01-27T00:36:10;6.40;83.60
69626;DHT22;56847;51.984;5.088;2024-01-27T00:38:39;6.50;83.70
69626;DHT22;56847;51.984;5.088;2024-01-27T00:41:18;6.40;83.70
69626;DHT22;56847;51.984;5.088;2024-01-27T00:43:45;6.40;83.70
69626;DHT22;56847;51.984;5.088;2024-01-27T00:46:12;6.40;83.70
69626;DHT22;56847;51.984;5.088;2024-01-27T00:48:39;6.40;83.60
69626;DHT22;56847;51.984;5.088;2024-01-27T00:51:06;6.40;83.60
69626;DHT22;56847;51.984;5.088;2024-01-27T00:53:34;6.40;83.50
69626;DHT22;56847;51.984;5.088;2024-01-27T00:56:01;6.40;83.50
69626;DHT22;56847;51.984;5.088;2024-01-27T00:58:32;6.40;83.60
69626;DHT22;56847;51.984;5.088;2024-01-27T01:00:59;6.40;83.70
69626;DHT22;56847;51.984;5.088;2024-01-27T01:03:26;6.40;83.70
69626;DHT22;56847;51.984;5.088;2024-01-27T01:05:54;6.40;83.80
69626;DHT22;56847;51.984;5.088;2024-01-27T01:08:21;6.40;83.80
69626;DHT22;56847;51.984;5.088;2024-01-27T01:10:48;6.40;83.90
69626;DHT22;56847;51.984;5.088;2024-01-27T01:13:15;6.40;83.90
69626;DHT22;56847;51.984;5.088;2024-01-27T01:15:49;6.40;83.90
69626;DHT22;56847;51.984;5.088;2024-01-27T01:18:25;6.40;83.90
69626;DHT22;56847;51.984;5.088;2024-01-27T01:20:53;6.40;83.80
69626;DHT22;56847;51.984;5.088;2024-01-27T01:23:23;6.40;83.70
69626;DHT22;56847;51.984;5.088;2024-01-27T01:25:50;6.40;83.60
69626;DHT22;56847;51.984;5.088;2024-01-27T01:28:17;6.40;83.50
69626;DHT22;56847;51.984;5.088;2024-01-27T01:30:44;6.40;83.40
69626;DHT22;56847;51.984;5.088;2024-01-27T01:33:19;6.40;83.30
69626;DHT22;56847;51.984;5.088;2024-01-27T01:35:47;6.40;83.20
69626;DHT22;56847;51.984;5.088;2024-01-27T01:38:14;6.40;83.30
69626;DHT22;56847;51.984;5.088;2024-01-27T01:40:41;6.30;83.20
69626;DHT22;56847;51.984;5.088;2024-01-27T01:43:11;6.40;83.20
69626;DHT22;56847;51.984;5.088;2024-01-27T01:45:41;6.30;83.10
69626;DHT22;56847;51.984;5.088;2024-01-27T01:48:08;6.30;83.20
69626;DHT22;56847;51.984;5.088;2024-01-27T01:50:36;6.30;83.20
69626;DHT22;56847;51.984;5.088;2024-01-27T01:53:04;6.30;83.20
69626;DHT22;56847;51.984;5.088;2024-01-27T01:55:32;6.30;83.10
69626;DHT22;56847;51.984;5.088;2024-01-27T01:57:59;6.30;83.10
69626;DHT22;56847;51.984;5.088;2024-01-27T02:00:28;6.30;83.00
69626;DHT22;56847;51.984;5.088;2024-01-27T02:02:56;6.20;83.00
69626;DHT22;56847;51.984;5.088;2024-01-27T02:05:23;6.20;82.90
69626;DHT22;56847;51.984;5.088;2024-01-27T02:07:50;6.20;82.90
69626;DHT22;56847;51.984;5.088;2024-01-27T02:10:20;6.20;82.80
69626;DHT22;56847;51.984;5.088;2024-01-27T02:12:47;6.20;82.70
69626;DHT22;56847;51.984;5.088;2024-01-27T02:15:14;6.10;82.80
69626;DHT22;56847;51.984;5.088;2024-01-27T02:17:42;6.20;82.70
69626;DHT22;56847;51.984;5.088;2024-01-27T02:20:13;6.10;82.60
69626;DHT22;56847;51.984;5.088;2024-01-27T02:22:40;6.10;82.60
69626;DHT22;56847;51.984;5.088;2024-01-27T02:25:09;6.10;82.60
69626;DHT22;56847;51.984;5.088;2024-01-27T02:27:36;6.10;82.60
69626;DHT22;56847;51.984;5.088;2024-01-27T02:30:04;6.00;82.60
69626;DHT22;56847;51.984;5.088;2024-01-27T02:32:31;6.00;82.70
69626;DHT22;56847;51.984;5.088;2024-01-27T02:34:58;6.00;82.70
69626;DHT22;56847;51.984;5.088;2024-01-27T02:37:25;6.00;82.80
69626;DHT22;56847;51.984;5.088;2024-01-27T02:39:52;6.00;82.80
69626;DHT22;56847;51.984;5.088;2024-01-27T02:42:21;6.00;82.80
69626;DHT22;56847;51.984;5.088;2024-01-27T02:44:48;6.00;82.80
69626;DHT22;56847;51.984;5.088;2024-01-27T02:47:18;6.00;82.80
69626;DHT22;56847;51.984;5.088;2024-01-27T02:49:45;6.00;82.90
69626;DHT22;56847;51.984;5.088;2024-01-27T02:52:12;6.00;83.00
69626;DHT22;56847;51.984;5.088;2024-01-27T02:54:41;6.00;83.20
69626;DHT22;56847;51.984;5.088;2024-01-27T02:57:08;6.00;83.30
69626;DHT22;56847;51.984;5.088;2024-01-27T02:59:35;6.00;83.30
69626;DHT22;56847;51.984;5.088;2024-01-27T03:02:06;6.00;83.30
69626;DHT22;56847;51.984;5.088;2024-01-27T03:04:33;5.90;83.30
69626;DHT22;56847;51.984;5.088;2024-01-27T03:07:00;5.90;83.30
69626;DHT22;56847;51.984;5.088;2024-01-27T03:09:28;6.00;83.30
69626;DHT22;56847;51.984;5.088;2024-01-27T03:12:00;5.90;83.40
69626;DHT22;56847;51.984;5.088;2024-01-27T03:14:27;5.90;83.30
69626;DHT22;56847;51.984;5.088;2024-01-27T03:16:54;5.90;83.40
69626;DHT22;56847;51.984;5.088;2024-01-27T03:19:24;5.90;83.50
69626;DHT22;56847;51.984;5.088;2024-01-27T03:21:53;5.90;83.40
69626;DHT22;56847;51.984;5.088;2024-01-27T03:24:20;5.90;83.30
69626;DHT22;56847;51.984;5.088;2024-01-27T03:26:50;5.90;83.30
69626;DHT22;56847;51.984;5.088;2024-01-27T03:29:17;6.00;83.20
69626;DHT22;56847;51.984;5.088;2024-01-27T03:31:47;5.90;83.10
69626;DHT22;56847;51.984;5.088;2024-01-27T03:34:16;5.90;82.90
69626;DHT22;56847;51.984;5.088;2024-01-27T03:36:48;5.90;82.90
69626;DHT22;56847;51.984;5.088;2024-01-27T03:39:18;5.90;82.80
69626;DHT22;56847;51.984;5.088;2024-01-27T03:41:46;5.90;82.80
69626;DHT22;56847;51.984;5.088;2024-01-27T03:44:16;5.90;82.90
69626;DHT22;56847;51.984;5.088;2024-01-27T03:46:43;5.90;82.90
69626;DHT22;56847;51.984;5.088;2024-01-27T03:49:10;5.80;82.80
69626;DHT22;56847;51.984;5.088;2024-01-27T03:51:45;5.80;82.80
69626;DHT22;56847;51.984;5.088;2024-01-27T03:54:14;5.80;82.80
69626;DHT22;56847;51.984;5.088;2024-01-27T03:56:41;5.80;82.80
69626;DHT22;56847;51.984;5.088;2024-01-27T03:59:34;5.80;82.90
69626;DHT22;56847;51.984;5.088;2024-01-27T04:02:04;5.80;83.00
69626;DHT22;56847;51.984;5.088;2024-01-27T04:04:31;5.80;83.00
69626;DHT22;56847;51.984;5.088;2024-01-27T04:06:58;5.80;83.00
69626;DHT22;56847;51.984;5.088;2024-01-27T04:09:26;5.80;83.00
69626;DHT22;56847;51.984;5.088;2024-01-27T04:11:53;5.70;82.80
69626;DHT22;56847;51.984;5.088;2024-01-27T04:14:20;5.70;82.60
69626;DHT22;56847;51.984;5.088;2024-01-27T04:16:51;5.70;82.50
69626;DHT22;56847;51.984;5.088;2024-01-27T04:19:18;5.70;82.50
69626;DHT22;56847;51.984;5.088;2024-01-27T04:21:45;5.70;82.60
69626;DHT22;56847;51.984;5.088;2024-01-27T04:24:14;5.70;82.70
69626;DHT22;56847;51.984;5.088;2024-01-27T04:26:41;5.70;82.60
69626;DHT22;56847;51.984;5.088;2024-01-27T04:29:08;5.70;82.50
69626;DHT22;56847;51.984;5.088;2024-01-27T04:31:40;5.70;82.50
69626;DHT22;56847;51.984;5.088;2024-01-27T04:34:08;5.60;82.50
69626;DHT22;56847;51.984;5.088;2024-01-27T04:36:35;5.60;82.50
69626;DHT22;56847;51.984;5.088;2024-01-27T04:39:02;5.60;82.70
69626;DHT22;56847;51.984;5.088;2024-01-27T04:41:29;5.60;82.70
69626;DHT22;56847;51.984;5.088;2024-01-27T04:43:59;5.60;82.80
69626;DHT22;56847;51.984;5.088;2024-01-27T04:46:28;5.60;82.70
69626;DHT22;56847;51.984;5.088;2024-01-27T04:48:55;5.60;82.60
69626;DHT22;56847;51.984;5.088;2024-01-27T04:51:23;5.50;82.70
69626;DHT22;56847;51.984;5.088;2024-01-27T04:53:53;5.50;82.80
69626;DHT22;56847;51.984;5.088;2024-01-27T04:56:21;5.50;82.80
69626;DHT22;56847;51.984;5.088;2024-01-27T04:58:48;5.50;82.80
69626;DHT22;56847;51.984;5.088;2024-01-27T05:01:18;5.50;82.80
69626;DHT22;56847;51.984;5.088;2024-01-27T05:03:46;5.50;82.60
69626;DHT22;56847;51.984;5.088;2024-01-27T05:06:16;5.50;82.50
69626;DHT22;56847;51.984;5.088;2024-01-27T05:08:44;5.50;82.40
69626;DHT22;56847;51.984;5.088;2024-01-27T05:11:11;5.50;82.30
69626;DHT22;56847;51.984;5.088;2024-01-27T05:13:40;5.50;82.20
69626;DHT22;56847;51.984;5.088;2024-01-27T05:16:07;5.50;82.10
69626;DHT22;56847;51.984;5.088;2024-01-27T05:18:34;5.40;82.20
69626;DHT22;56847;51.984;5.088;2024-01-27T05:21:01;5.40;82.20
69626;DHT22;56847;51.984;5.088;2024-01-27T05:23:29;5.40;82.20
69626;DHT22;56847;51.984;5.088;2024-01-27T05:25:56;5.40;82.20
69626;DHT22;56847;51.984;5.088;2024-01-27T05:28:23;5.40;82.30
69626;DHT22;56847;51.984;5.088;2024-01-27T05:30:51;5.40;82.40
69626;DHT22;56847;51.984;5.088;2024-01-27T05:33:19;5.40;82.40
69626;DHT22;56847;51.984;5.088;2024-01-27T05:35:47;5.40;82.30
69626;DHT22;56847;51.984;5.088;2024-01-27T05:38:14;5.40;82.50
69626;DHT22;56847;51.984;5.088;2024-01-27T05:40:41;5.40;82.40
69626;DHT22;56847;51.984;5.088;2024-01-27T05:43:08;5.40;82.50
69626;DHT22;56847;51.984;5.088;2024-01-27T05:45:35;5.40;82.60
69626;DHT22;56847;51.984;5.088;2024-01-27T05:48:02;5.40;82.60
69626;DHT22;56847;51.984;5.088;2024-01-27T05:50:30;5.40;82.80
69626;DHT22;56847;51.984;5.088;2024-01-27T05:53:01;5.40;82.70
69626;DHT22;56847;51.984;5.088;2024-01-27T05:55:28;5.40;82.80
69626;DHT22;56847;51.984;5.088;2024-01-27T05:57:56;5.40;82.80
69626;DHT22;56847;51.984;5.088;2024-01-27T06:00:26;5.40;82.90
69626;DHT22;56847;51.984;5.088;2024-01-27T06:02:53;5.40;82.90
69626;DHT22;56847;51.984;5.088;2024-01-27T06:05:24;5.40;82.90
69626;DHT22;56847;51.984;5.088;2024-01-27T06:07:51;5.40;83.00
69626;DHT22;56847;51.984;5.088;2024-01-27T06:10:18;5.40;83.00
69626;DHT22;56847;51.984;5.088;2024-01-27T06:12:45;5.40;82.90
69626;DHT22;56847;51.984;5.088;2024-01-27T06:15:14;5.40;83.00
69626;DHT22;56847;51.984;5.088;2024-01-27T06:17:42;5.40;83.00
69626;DHT22;56847;51.984;5.088;2024-01-27T06:20:09;5.40;83.00
69626;DHT22;56847;51.984;5.088;2024-01-27T06:22:40;5.40;83.00
69626;DHT22;56847;51.984;5.088;2024-01-27T06:25:08;5.40;83.20
69626;DHT22;56847;51.984;5.088;2024-01-27T06:27:38;5.40;83.20
69626;DHT22;56847;51.984;5.088;2024-01-27T06:30:05;5.40;83.20
69626;DHT22;56847;51.984;5.088;2024-01-27T06:32:32;5.40;83.30
69626;DHT22;56847;51.984;5.088;2024-01-27T06:35:03;5.40;83.10
69626;DHT22;56847;51.984;5.088;2024-01-27T06:37:30;5.40;83.10
69626;DHT22;56847;51.984;5.088;2024-01-27T06:40:00;5.40;83.10
69626;DHT22;56847;51.984;5.088;2024-01-27T06:42:27;5.40;83.10
69626;DHT22;56847;51.984;5.088;2024-01-27T06:44:54;5.40;83.00
69626;DHT22;56847;51.984;5.088;2024-01-27T06:47:23;5.40;83.00
69626;DHT22;56847;51.984;5.088;2024-01-27T06:49:53;5.40;83.00
69626;DHT22;56847;51.984;5.088;2024-01-27T06:52:20;5.40;83.00
69626;DHT22;56847;51.984;5.088;2024-01-27T06:54:47;5.40;82.90
69626;DHT22;56847;51.984;5.088;2024-01-27T06:57:21;5.40;82.90
69626;DHT22;56847;51.984;5.088;2024-01-27T06:59:49;5.40;82.90
69626;DHT22;56847;51.984;5.088;2024-01-27T07:02:23;5.30;83.00
69626;DHT22;56847;51.984;5.088;2024-01-27T07:04:50;5.30;83.00
69626;DHT22;56847;51.984;5.088;2024-01-27T07:07:19;5.30;83.00
69626;DHT22;56847;51.984;5.088;2024-01-27T07:09:48;5.30;82.90
69626;DHT22;56847;51.984;5.088;2024-01-27T07:12:15;5.30;83.00
69626;DHT22;56847;51.984;5.088;2024-01-27T07:14:45;5.30;83.00
69626;DHT22;56847;51.984;5.088;2024-01-27T07:17:12;5.30;83.00
69626;DHT22;56847;51.984;5.088;2024-01-27T07:19:39;5.30;83.00
69626;DHT22;56847;51.984;5.088;2024-01-27T07:22:06;5.30;83.00
69626;DHT22;56847;51.984;5.088;2024-01-27T07:24:36;5.30;83.10
69626;DHT22;56847;51.984;5.088;2024-01-27T07:27:03;5.30;83.20
69626;DHT22;56847;51.984;5.088;2024-01-27T07:29:30;5.30;83.20
69626;DHT22;56847;51.984;5.088;2024-01-27T07:31:57;5.30;83.30
69626;DHT22;56847;51.984;5.088;2024-01-27T07:34:27;5.30;83.20
69626;DHT22;56847;51.984;5.088;2024-01-27T07:36:54;5.40;83.20
69626;DHT22;56847;51.984;5.088;2024-01-27T07:39:21;5.40;83.20
69626;DHT22;56847;51.984;5.088;2024-01-27T07:41:51;5.40;83.20
69626;DHT22;56847;51.984;5.088;2024-01-27T07:44:18;5.40;83.20
69626;DHT22;56847;51.984;5.088;2024-01-27T07:46:45;5.40;83.30
69626;DHT22;56847;51.984;5.088;2024-01-27T07:49:13;5.40;83.30
69626;DHT22;56847;51.984;5.088;2024-01-27T07:51:42;5.40;83.50
69626;DHT22;56847;51.984;5.088;2024-01-27T07:54:11;5.50;83.50
69626;DHT22;56847;51.984;5.088;2024-01-27T07:56:38;5.50;83.60
69626;DHT22;56847;51.984;5.088;2024-01-27T07:59:05;5.50;83.50
69626;DHT22;56847;51.984;5.088;2024-01-27T08:01:32;5.60;83.50
69626;DHT22;56847;51.984;5.088;2024-01-27T08:03:59;5.60;83.50
69626;DHT22;56847;51.984;5.088;2024-01-27T08:06:30;5.60;83.50
69626;DHT22;56847;51.984;5.088;2024-01-27T08:08:59;5.70;83.50
69626;DHT22;56847;51.984;5.088;2024-01-27T08:11:29;5.70;83.60
69626;DHT22;56847;51.984;5.088;2024-01-27T08:14:00;5.70;83.70
69626;DHT22;56847;51.984;5.088;2024-01-27T08:16:30;5.80;83.70
69626;DHT22;56847;51.984;5.088;2024-01-27T08:18:57;5.80;83.60
69626;DHT22;56847;51.984;5.088;2024-01-27T08:21:25;5.80;83.50
69626;DHT22;56847;51.984;5.088;2024-01-27T08:23:53;5.90;83.50
69626;DHT22;56847;51.984;5.088;2024-01-27T08:26:20;5.90;83.50
69626;DHT22;56847;51.984;5.088;2024-01-27T08:28:47;5.90;83.60
69626;DHT22;56847;51.984;5.088;2024-01-27T08:31:14;6.00;83.80
69626;DHT22;56847;51.984;5.088;2024-01-27T08:33:41;6.00;83.80
69626;DHT22;56847;51.984;5.088;2024-01-27T08:36:13;6.10;83.90
69626;DHT22;56847;51.984;5.088;2024-01-27T08:38:41;6.10;84.00
69626;DHT22;56847;51.984;5.088;2024-01-27T08:41:08;6.20;83.80
69626;DHT22;56847;51.984;5.088;2024-01-27T08:43:35;6.20;83.70
69626;DHT22;56847;51.984;5.088;2024-01-27T08:46:05;6.20;83.70
69626;DHT22;56847;51.984;5.088;2024-01-27T08:48:33;6.30;83.90
69626;DHT22;56847;51.984;5.088;2024-01-27T08:51:00;6.30;83.80
69626;DHT22;56847;51.984;5.088;2024-01-27T08:53:28;6.30;83.60
69626;DHT22;56847;51.984;5.088;2024-01-27T08:55:55;6.40;83.90
69626;DHT22;56847;51.984;5.088;2024-01-27T08:58:21;6.50;84.20
69626;DHT22;56847;51.984;5.088;2024-01-27T09:00:48;6.50;84.50
69626;DHT22;56847;51.984;5.088;2024-01-27T09:03:18;6.60;84.60
69626;DHT22;56847;51.984;5.088;2024-01-27T09:05:47;6.80;84.60
69626;DHT22;56847;51.984;5.088;2024-01-27T09:08:14;6.80;84.50
69626;DHT22;56847;51.984;5.088;2024-01-27T09:10:42;6.90;84.50
69626;DHT22;56847;51.984;5.088;2024-01-27T09:13:09;6.90;84.40
69626;DHT22;56847;51.984;5.088;2024-01-27T09:15:40;7.00;84.10
69626;DHT22;56847;51.984;5.088;2024-01-27T09:18:08;7.00;84.10
69626;DHT22;56847;51.984;5.088;2024-01-27T09:20:35;7.00;84.10
69626;DHT22;56847;51.984;5.088;2024-01-27T09:23:07;7.10;84.10
69626;DHT22;56847;51.984;5.088;2024-01-27T09:25:34;7.10;84.00
69626;DHT22;56847;51.984;5.088;2024-01-27T09:28:01;7.20;84.00
69626;DHT22;56847;51.984;5.088;2024-01-27T09:30:30;7.20;83.70
69626;DHT22;56847;51.984;5.088;2024-01-27T09:32:59;7.20;83.80
69626;DHT22;56847;51.984;5.088;2024-01-27T09:35:27;7.30;83.70
69626;DHT22;56847;51.984;5.088;2024-01-27T09:37:54;7.30;83.70
69626;DHT22;56847;51.984;5.088;2024-01-27T09:40:21;7.30;83.60
69626;DHT22;56847;51.984;5.088;2024-01-27T09:42:51;7.40;83.50
69626;DHT22;56847;51.984;5.088;2024-01-27T09:45:21;7.40;83.40
69626;DHT22;56847;51.984;5.088;2024-01-27T09:47:51;7.40;83.40
69626;DHT22;56847;51.984;5.088;2024-01-27T09:50:19;7.50;83.50
69626;DHT22;56847;51.984;5.088;2024-01-27T09:52:47;7.60;83.40
69626;DHT22;56847;51.984;5.088;2024-01-27T09:55:15;7.60;83.50
69626;DHT22;56847;51.984;5.088;2024-01-27T09:57:44;7.60;83.30
69626;DHT22;56847;51.984;5.088;2024-01-27T10:00:12;7.70;83.20
69626;DHT22;56847;51.984;5.088;2024-01-27T10:02:39;7.70;83.00
69626;DHT22;56847;51.984;5.088;2024-01-27T10:05:10;7.70;83.20
69626;DHT22;56847;51.984;5.088;2024-01-27T10:07:39;7.80;83.20
69626;DHT22;56847;51.984;5.088;2024-01-27T10:10:09;7.90;83.10
69626;DHT22;56847;51.984;5.088;2024-01-27T10:12:41;7.90;83.10
69626;DHT22;56847;51.984;5.088;2024-01-27T10:15:21;8.00;83.10
69626;DHT22;56847;51.984;5.088;2024-01-27T10:17:49;8.10;83.00
69626;DHT22;56847;51.984;5.088;2024-01-27T10:20:17;8.10;83.00
69626;DHT22;56847;51.984;5.088;2024-01-27T10:22:46;8.20;82.90
69626;DHT22;56847;51.984;5.088;2024-01-27T10:25:13;8.20;82.90
69626;DHT22;56847;51.984;5.088;2024-01-27T10:27:42;8.30;82.70
69626;DHT22;56847;51.984;5.088;2024-01-27T10:30:16;8.30;82.60
69626;DHT22;56847;51.984;5.088;2024-01-27T10:32:54;8.40;82.40
69626;DHT22;56847;51.984;5.088;2024-01-27T10:35:21;8.40;82.40
69626;DHT22;56847;51.984;5.088;2024-01-27T10:37:55;8.40;82.30
69626;DHT22;56847;51.984;5.088;2024-01-27T10:40:28;8.50;82.40
69626;DHT22;56847;51.984;5.088;2024-01-27T10:43:04;8.60;82.30
69626;DHT22;56847;51.984;5.088;2024-01-27T10:45:39;8.60;82.10
69626;DHT22;56847;51.984;5.088;2024-01-27T10:48:11;8.60;82.10
69626;DHT22;56847;51.984;5.088;2024-01-27T10:50:40;8.70;82.20
69626;DHT22;56847;51.984;5.088;2024-01-27T10:53:24;8.70;82.00
69626;DHT22;56847;51.984;5.088;2024-01-27T10:55:58;8.80;81.70
69626;DHT22;56847;51.984;5.088;2024-01-27T10:58:26;8.80;82.00
69626;DHT22;56847;51.984;5.088;2024-01-27T11:00:56;8.90;82.00
69626;DHT22;56847;51.984;5.088;2024-01-27T11:03:25;8.90;81.90
69626;DHT22;56847;51.984;5.088;2024-01-27T11:05:57;9.00;81.60
69626;DHT22;56847;51.984;5.088;2024-01-27T11:08:26;9.00;81.80
69626;DHT22;56847;51.984;5.088;2024-01-27T11:10:56;9.00;81.70
69626;DHT22;56847;51.984;5.088;2024-01-27T11:13:23;9.10;81.70
69626;DHT22;56847;51.984;5.088;2024-01-27T11:15:52;9.10;81.60
69626;DHT22;56847;51.984;5.088;2024-01-27T11:18:20;9.20;81.60
69626;DHT22;56847;51.984;5.088;2024-01-27T11:20:47;9.20;81.40
69626;DHT22;56847;51.984;5.088;2024-01-27T11:23:15;9.30;81.30
69626;DHT22;56847;51.984;5.088;2024-01-27T11:25:42;9.30;81.30
69626;DHT22;56847;51.984;5.088;2024-01-27T11:28:16;9.40;80.90
69626;DHT22;56847;51.984;5.088;2024-01-27T11:30:51;9.40;80.90
69626;DHT22;56847;51.984;5.088;2024-01-27T11:33:26;9.40;80.80
69626;DHT22;56847;51.984;5.088;2024-01-27T11:36:03;9.50;80.70
69626;DHT22;56847;51.984;5.088;2024-01-27T11:38:32;9.50;80.20
69626;DHT22;56847;51.984;5.088;2024-01-27T11:41:06;9.50;79.80
69626;DHT22;56847;51.984;5.088;2024-01-27T11:43:58;9.60;79.90
69626;DHT22;56847;51.984;5.088;2024-01-27T11:46:30;9.60;79.50
69626;DHT22;56847;51.984;5.088;2024-01-27T11:49:00;9.70;79.60
69626;DHT22;56847;51.984;5.088;2024-01-27T11:51:57;9.80;79.30
69626;DHT22;56847;51.984;5.088;2024-01-27T11:54:38;9.80;79.30
69626;DHT22;56847;51.984;5.088;2024-01-27T11:57:13;9.80;79.20
69626;DHT22;56847;51.984;5.088;2024-01-27T11:59:44;9.90;79.20
69626;DHT22;56847;51.984;5.088;2024-01-27T12:02:13;9.90;78.50
69626;DHT22;56847;51.984;5.088;2024-01-27T12:04:46;9.90;78.40
69626;DHT22;56847;51.984;5.088;2024-01-27T12:07:15;9.90;78.00
69626;DHT22;56847;51.984;5.088;2024-01-27T12:09:44;9.90;78.40
69626;DHT22;56847;51.984;5.088;2024-01-27T12:12:14;10.00;78.50
69626;DHT22;56847;51.984;5.088;2024-01-27T12:14:48;10.00;78.50
69626;DHT22;56847;51.984;5.088;2024-01-27T12:17:16;10.00;78.20
69626;DHT22;56847;51.984;5.088;2024-01-27T12:19:53;10.10;77.70
69626;DHT22;56847;51.984;5.088;2024-01-27T12:22:24;10.00;77.90
69626;DHT22;56847;51.984;5.088;2024-01-27T12:25:15;10.10;77.80
69626;DHT22;56847;51.984;5.088;2024-01-27T12:27:43;10.10;77.80
69626;DHT22;56847;51.984;5.088;2024-01-27T12:30:16;10.10;77.50
69626;DHT22;56847;51.984;5.088;2024-01-27T12:32:49;10.10;77.30
69626;DHT22;56847;51.984;5.088;2024-01-27T12:35:20;10.20;77.40
69626;DHT22;56847;51.984;5.088;2024-01-27T12:37:52;10.20;77.10
69626;DHT22;56847;51.984;5.088;2024-01-27T12:40:23;10.20;76.90
69626;DHT22;56847;51.984;5.088;2024-01-27T12:42:51;10.20;76.80
69626;DHT22;56847;51.984;5.088;2024-01-27T12:45:18;10.20;76.50
69626;DHT22;56847;51.984;5.088;2024-01-27T12:47:46;10.20;76.60
69626;DHT22;56847;51.984;5.088;2024-01-27T12:50:13;10.20;76.50
69626;DHT22;56847;51.984;5.088;2024-01-27T12:52:40;10.20;76.80
69626;DHT22;56847;51.984;5.088;2024-01-27T12:55:07;10.30;76.90
69626;DHT22;56847;51.984;5.088;2024-01-27T12:57:35;10.30;77.10
69626;DHT22;56847;51.984;5.088;2024-01-27T13:00:03;10.40;77.00
69626;DHT22;56847;51.984;5.088;2024-01-27T13:02:36;10.40;76.90
69626;DHT22;56847;51.984;5.088;2024-01-27T13:05:17;10.40;76.90
69626;DHT22;56847;51.984;5.088;2024-01-27T13:07:48;10.40;76.50
69626;DHT22;56847;51.984;5.088;2024-01-27T13:10:18;10.40;76.10
69626;DHT22;56847;51.984;5.088;2024-01-27T13:12:46;10.40;75.90
69626;DHT22;56847;51.984;5.088;2024-01-27T13:15:16;10.40;76.30
69626;DHT22;56847;51.984;5.088;2024-01-27T13:17:43;10.40;76.30
69626;DHT22;56847;51.984;5.088;2024-01-27T13:20:11;10.50;76.10
69626;DHT22;56847;51.984;5.088;2024-01-27T13:22:44;10.50;76.00
69626;DHT22;56847;51.984;5.088;2024-01-27T13:25:12;10.50;76.00
69626;DHT22;56847;51.984;5.088;2024-01-27T13:27:42;10.50;76.20
69626;DHT22;56847;51.984;5.088;2024-01-27T13:30:10;10.60;76.20
69626;DHT22;56847;51.984;5.088;2024-01-27T13:32:48;10.60;75.70
69626;DHT22;56847;51.984;5.088;2024-01-27T13:35:40;10.60;75.50
69626;DHT22;56847;51.984;5.088;2024-01-27T13:38:18;10.70;75.30
69626;DHT22;56847;51.984;5.088;2024-01-27T13:41:01;10.60;75.00
69626;DHT22;56847;51.984;5.088;2024-01-27T13:43:34;10.60;74.60
69626;DHT22;56847;51.984;5.088;2024-01-27T13:46:02;10.70;74.60
69626;DHT22;56847;51.984;5.088;2024-01-27T13:52:45;10.60;74.10
69626;DHT22;56847;51.984;5.088;2024-01-27T13:55:27;10.70;74.30
69626;DHT22;56847;51.984;5.088;2024-01-27T14:07:31;10.60;73.90
69626;DHT22;56847;51.984;5.088;2024-01-27T14:10:04;10.70;74.10
69626;DHT22;56847;51.984;5.088;2024-01-27T14:12:35;10.70;74.10
69626;DHT22;56847;51.984;5.088;2024-01-27T14:15:24;10.70;74.00
69626;DHT22;56847;51.984;5.088;2024-01-27T14:18:03;10.70;73.90
69626;DHT22;56847;51.984;5.088;2024-01-27T14:20:36;10.70;74.10
69626;DHT22;56847;51.984;5.088;2024-01-27T14:23:07;10.70;74.30
69626;DHT22;56847;51.984;5.088;2024-01-27T14:25:42;10.80;74.30
69626;DHT22;56847;51.984;5.088;2024-01-27T14:28:32;10.80;74.20
69626;DHT22;56847;51.984;5.088;2024-01-27T14:31:23;10.90;74.00
69626;DHT22;56847;51.984;5.088;2024-01-27T14:34:02;10.90;73.80
69626;DHT22;56847;51.984;5.088;2024-01-27T14:36:31;10.90;73.60
69626;DHT22;56847;51.984;5.088;2024-01-27T14:39:02;10.90;73.20
69626;DHT22;56847;51.984;5.088;2024-01-27T14:41:54;10.90;73.20
69626;DHT22;56847;51.984;5.088;2024-01-27T14:44:33;10.90;73.40
69626;DHT22;56847;51.984;5.088;2024-01-27T14:47:04;11.00;73.40
69626;DHT22;56847;51.984;5.088;2024-01-27T14:49:34;11.10;73.30
69626;DHT22;56847;51.984;5.088;2024-01-27T14:52:25;11.10;73.10
69626;DHT22;56847;51.984;5.088;2024-01-27T14:54:56;11.20;72.80
69626;DHT22;56847;51.984;5.088;2024-01-27T14:57:44;11.20;72.60
69626;DHT22;56847;51.984;5.088;2024-01-27T15:00:27;11.20;72.30
69626;DHT22;56847;51.984;5.088;2024-01-27T15:03:06;11.20;72.40
69626;DHT22;56847;51.984;5.088;2024-01-27T15:05:36;11.20;72.30
69626;DHT22;56847;51.984;5.088;2024-01-27T15:11:01;11.10;72.10
69626;DHT22;56847;51.984;5.088;2024-01-27T15:13:55;11.00;72.20
69626;DHT22;56847;51.984;5.088;2024-01-27T15:16:34;10.80;72.30
69626;DHT22;56847;51.984;5.088;2024-01-27T15:22:08;10.70;72.60
69626;DHT22;56847;51.984;5.088;2024-01-27T15:24:43;10.70;72.50
69626;DHT22;56847;51.984;5.088;2024-01-27T15:27:11;10.60;72.50
69626;DHT22;56847;51.984;5.088;2024-01-27T15:29:43;10.60;72.60
69626;DHT22;56847;51.984;5.088;2024-01-27T15:32:11;10.50;72.50
69626;DHT22;56847;51.984;5.088;2024-01-27T15:34:41;10.40;72.60
69626;DHT22;56847;51.984;5.088;2024-01-27T15:37:09;10.40;72.50
69626;DHT22;56847;51.984;5.088;2024-01-27T15:39:46;10.30;72.60
69626;DHT22;56847;51.984;5.088;2024-01-27T15:42:13;10.20;72.50
69626;DHT22;56847;51.984;5.088;2024-01-27T15:44:43;10.10;72.50
69626;DHT22;56847;51.984;5.088;2024-01-27T15:47:13;10.10;72.60
69626;DHT22;56847;51.984;5.088;2024-01-27T15:49:42;10.00;72.70
69626;DHT22;56847;51.984;5.088;2024-01-27T15:52:11;9.90;72.70
69626;DHT22;56847;51.984;5.088;2024-01-27T15:54:43;9.80;72.70
69626;DHT22;56847;51.984;5.088;2024-01-27T15:57:11;9.80;72.80
69626;DHT22;56847;51.984;5.088;2024-01-27T15:59:38;9.70;72.80
69626;DHT22;56847;51.984;5.088;2024-01-27T16:02:05;9.70;72.80
69626;DHT22;56847;51.984;5.088;2024-01-27T16:04:32;9.60;72.80
69626;DHT22;56847;51.984;5.088;2024-01-27T16:07:02;9.60;72.90
69626;DHT22;56847;51.984;5.088;2024-01-27T16:09:30;9.50;73.00
69626;DHT22;56847;51.984;5.088;2024-01-27T16:12:01;9.50;73.00
69626;DHT22;56847;51.984;5.088;2024-01-27T16:14:28;9.40;73.00
69626;DHT22;56847;51.984;5.088;2024-01-27T16:16:55;9.30;73.00
69626;DHT22;56847;51.984;5.088;2024-01-27T16:19:23;9.30;73.10